Medora, Iowa
Current Conditions -  °F | °C
As of 5:54 PM on Wednesday 22 Oct 2014 (Local Time) from KDSM Reporting Station
Broken Clouds Broken Clouds  
Wind Chill: 64°   Ceiling: 9000
Heat Index: 64°   Visibility: 9mi
Dew Point: 47°   Wind: 12mph
Humidity: 54%   Direction: 160°SSE
Pressure: 30.11"   Gusts: NA
Location:  41.3316°N, 93.579°W
Report Text: KDSM 222254Z 16010KT 9SM SCT055 BKN090 BKN250 18/08 A3011 RMK AO2 SLP196 T01780083
Loading
Personal Weather Stations






























Interactive Weather Map
Tropical Storm Tracking
New forecast layout! Learn more

10-Day Weather Forecast

Advertisements
Track Severe Weather on mobile